Time,TemperatureF,DewpointF,PressureIn,WindDirection,WindDirectionDegrees,WindSpeedMPH,WindSpeedGustMPH,Humidity,HourlyPrecipIn,Conditions,Clouds,dailyrainin,SoftwareType,DateUTC
2013-06-29 00:11:00,64.0,63.0,29.83,WNW,283,0.0,0.0,96,0.00,,,0.00,weatherlink.com 1.10,2013-06-29 04:11:00,
2013-06-29 00:29:00,63.7,63.0,29.83,WNW,283,0.0,0.0,96,0.00,,,0.00,weatherlink.com 1.10,2013-06-29 04:29:00,
2013-06-29 00:47:00,63.5,63.0,29.83,WNW,283,0.0,0.0,97,0.00,,,0.00,weatherlink.com 1.10,2013-06-29 04:47:00,
2013-06-29 01:04:00,63.2,62.0,29.82,WNW,283,0.0,0.0,97,0.00,,,0.00,weatherlink.com 1.10,2013-06-29 05:04:00,
2013-06-29 01:23:00,63.0,62.0,29.82,WNW,283,0.0,0.0,97,0.00,,,0.00,weatherlink.com 1.10,2013-06-29 05:23:00,
2013-06-29 01:40:00,62.5,62.0,29.81,WNW,283,0.0,0.0,97,0.00,,,0.00,weatherlink.com 1.10,2013-06-29 05:40:00,
2013-06-29 01:58:00,62.4,62.0,29.81,WNW,283,0.0,0.0,97,0.00,,,0.00,weatherlink.com 1.10,2013-06-29 05:58:00,
2013-06-29 02:16:00,62.4,62.0,29.81,WNW,283,0.0,0.0,97,0.00,,,0.00,weatherlink.com 1.10,2013-06-29 06:16:00,
2013-06-29 02:34:00,62.3,62.0,29.81,WNW,283,0.0,0.0,97,0.00,,,0.00,weatherlink.com 1.10,2013-06-29 06:34:00,
2013-06-29 02:59:00,62.4,62.0,29.81,WNW,283,0.0,0.0,97,0.00,,,0.00,weatherlink.com 1.10,2013-06-29 06:59:00,
2013-06-29 03:08:00,62.5,62.0,29.81,SSW,201,0.0,0.0,97,0.00,,,0.00,weatherlink.com 1.10,2013-06-29 07:08:00,
2013-06-29 03:26:00,62.5,62.0,29.81,SSW,200,0.0,0.0,97,0.00,,,0.00,weatherlink.com 1.10,2013-06-29 07:26:00,
2013-06-29 03:44:00,62.2,61.0,29.81,SSW,203,0.0,0.0,97,0.00,,,0.00,weatherlink.com 1.10,2013-06-29 07:44:00,
2013-06-29 04:01:00,62.0,61.0,29.81,SSW,201,0.0,0.0,97,0.00,,,0.00,weatherlink.com 1.10,2013-06-29 08:01:00,
2013-06-29 04:20:00,61.7,61.0,29.80,SSW,201,0.0,0.0,97,0.00,,,0.00,weatherlink.com 1.10,2013-06-29 08:20:00,
2013-06-29 04:38:00,61.9,61.0,29.80,SSW,202,0.0,0.0,98,0.00,,,0.00,weatherlink.com 1.10,2013-06-29 08:38:00,
2013-06-29 04:55:00,61.9,61.0,29.81,SSW,200,0.0,0.0,98,0.00,,,0.00,weatherlink.com 1.10,2013-06-29 08:55:00,
2013-06-29 05:13:00,61.6,61.0,29.81,SSW,201,0.0,0.0,98,0.01,,,0.01,weatherlink.com 1.10,2013-06-29 09:13:00,
2013-06-29 05:31:00,61.2,61.0,29.81,SSW,201,0.0,0.0,98,0.01,,,0.01,weatherlink.com 1.10,2013-06-29 09:31:00,
2013-06-29 05:48:00,61.3,61.0,29.81,SSW,201,0.0,0.0,98,0.01,,,0.01,weatherlink.com 1.10,2013-06-29 09:48:00,
2013-06-29 06:07:00,61.2,61.0,29.81,SSW,200,0.0,0.0,98,0.01,,,0.01,weatherlink.com 1.10,2013-06-29 10:07:00,
2013-06-29 06:24:00,61.3,61.0,29.81,SSW,201,0.0,0.0,98,0.00,,,0.01,weatherlink.com 1.10,2013-06-29 10:24:00,
2013-06-29 06:42:00,61.2,61.0,29.82,SSW,201,0.0,0.0,98,0.00,,,0.01,weatherlink.com 1.10,2013-06-29 10:42:00,
2013-06-29 07:00:00,61.5,61.0,29.82,SSW,202,0.0,0.0,98,0.00,,,0.01,weatherlink.com 1.10,2013-06-29 11:00:00,
2013-06-29 07:18:00,62.4,62.0,29.82,SSW,201,0.0,0.0,98,0.00,,,0.01,weatherlink.com 1.10,2013-06-29 11:18:00,
2013-06-29 07:35:00,63.1,63.0,29.82,SSW,201,0.0,0.0,98,0.00,,,0.01,weatherlink.com 1.10,2013-06-29 11:35:00,
2013-06-29 07:54:00,64.4,64.0,29.82,West,266,0.0,0.0,98,0.00,,,0.01,weatherlink.com 1.10,2013-06-29 11:54:00,
2013-06-29 08:11:00,65.8,65.0,29.83,WNW,283,2.0,4.0,98,0.00,,,0.01,weatherlink.com 1.10,2013-06-29 12:11:00,
2013-06-29 08:30:00,66.2,65.0,29.83,SW,229,0.0,6.0,95,0.00,,,0.01,weatherlink.com 1.10,2013-06-29 12:30:00,
2013-06-29 08:47:00,67.7,65.0,29.83,West,266,0.0,5.0,92,0.00,,,0.01,weatherlink.com 1.10,2013-06-29 12:47:00,
2013-06-29 09:05:00,68.7,65.0,29.83,WSW,253,0.0,3.0,89,0.00,,,0.01,weatherlink.com 1.10,2013-06-29 13:05:00,
2013-06-29 09:22:00,69.1,66.0,29.83,NNW,328,1.0,4.0,89,0.00,,,0.01,weatherlink.com 1.10,2013-06-29 13:22:00,
2013-06-29 09:41:00,68.7,65.0,29.83,West,262,1.0,3.0,88,0.00,,,0.01,weatherlink.com 1.10,2013-06-29 13:41:00,
2013-06-29 09:58:00,68.7,65.0,29.83,West,274,0.0,2.0,89,0.00,,,0.01,weatherlink.com 1.10,2013-06-29 13:58:00,
2013-06-29 10:17:00,69.4,65.0,29.83,WNW,303,1.0,4.0,87,0.00,,,0.01,weatherlink.com 1.10,2013-06-29 14:17:00,
2013-06-29 10:34:00,69.6,66.0,29.83,NNW,334,2.0,3.0,88,0.00,,,0.01,weatherlink.com 1.10,2013-06-29 14:34:00,
2013-06-29 10:52:00,69.3,66.0,29.83,NW,305,0.0,2.0,88,0.00,,,0.01,weatherlink.com 1.10,2013-06-29 14:52:00,
2013-06-29 11:10:00,69.2,66.0,29.83,NW,318,0.0,3.0,89,0.00,,,0.01,weatherlink.com 1.10,2013-06-29 15:10:00,
2013-06-29 11:28:00,70.2,66.0,29.83,WNW,291,0.0,4.0,85,0.00,,,0.01,weatherlink.com 1.10,2013-06-29 15:28:00,
2013-06-29 11:45:00,71.8,66.0,29.83,West,280,1.0,4.0,81,0.00,,,0.01,weatherlink.com 1.10,2013-06-29 15:45:00,
2013-06-29 12:03:00,72.3,66.0,29.83,WNW,300,1.0,3.0,81,0.00,,,0.01,weatherlink.com 1.10,2013-06-29 16:03:00,
2013-06-29 12:21:00,73.2,66.0,29.83,SSW,212,0.0,2.0,79,0.00,,,0.01,weatherlink.com 1.10,2013-06-29 16:21:00,
2013-06-29 12:39:00,73.1,67.0,29.83,SW,229,0.0,1.0,80,0.00,,,0.01,weatherlink.com 1.10,2013-06-29 16:39:00,
2013-06-29 12:56:00,69.3,66.0,29.83,NW,309,1.0,3.0,89,0.05,,,0.06,weatherlink.com 1.10,2013-06-29 16:56:00,
2013-06-29 13:15:00,69.6,67.0,29.83,NNW,332,0.0,1.0,91,0.06,,,0.07,weatherlink.com 1.10,2013-06-29 17:15:00,
2013-06-29 13:32:00,70.8,68.0,29.83,NNE,14,0.0,1.0,90,0.08,,,0.09,weatherlink.com 1.10,2013-06-29 17:32:00,
2013-06-29 13:50:00,71.2,68.0,29.83,NNE,14,0.0,0.0,89,0.03,,,0.09,weatherlink.com 1.10,2013-06-29 17:50:00,
2013-06-29 14:07:00,70.5,67.0,29.82,NNE,15,0.0,0.0,87,0.04,,,0.10,weatherlink.com 1.10,2013-06-29 18:07:00,
2013-06-29 14:26:00,71.0,67.0,29.82,NNE,14,0.0,0.0,86,0.01,,,0.10,weatherlink.com 1.10,2013-06-29 18:26:00,
2013-06-29 14:43:00,71.7,68.0,29.82,WNW,302,0.0,1.0,88,0.01,,,0.10,weatherlink.com 1.10,2013-06-29 18:43:00,
2013-06-29 15:02:00,71.5,66.0,29.82,WNW,302,0.0,0.0,83,0.00,,,0.10,weatherlink.com 1.10,2013-06-29 19:02:00,
2013-06-29 15:19:00,69.3,66.0,29.82,SSE,167,1.0,2.0,90,0.01,,,0.11,weatherlink.com 1.10,2013-06-29 19:19:00,
2013-06-29 15:37:00,66.9,65.0,29.85,SE,142,0.0,6.0,92,0.58,,,0.68,weatherlink.com 1.10,2013-06-29 19:37:00,
2013-06-29 15:54:00,65.2,64.0,29.85,ESE,105,0.0,2.0,95,1.26,,,1.36,weatherlink.com 1.10,2013-06-29 19:54:00,
2013-06-29 16:13:00,65.1,64.0,29.84,SW,218,0.0,1.0,96,1.26,,,1.36,weatherlink.com 1.10,2013-06-29 20:13:00,
2013-06-29 16:30:00,65.5,64.0,29.83,SW,218,0.0,0.0,96,0.92,,,1.36,weatherlink.com 1.10,2013-06-29 20:30:00,
2013-06-29 16:49:00,66.9,66.0,29.83,NW,318,0.0,2.0,95,0.08,,,1.36,weatherlink.com 1.10,2013-06-29 20:49:00,
2013-06-29 17:06:00,68.7,66.0,29.83,West,263,0.0,1.0,91,0.00,,,1.36,weatherlink.com 1.10,2013-06-29 21:06:00,
2013-06-29 17:24:00,69.6,66.0,29.82,North,1,0.0,2.0,89,0.00,,,1.36,weatherlink.com 1.10,2013-06-29 21:24:00,
2013-06-29 17:42:00,70.4,66.0,29.84,NNW,329,0.0,1.0,87,0.00,,,1.36,weatherlink.com 1.10,2013-06-29 21:42:00,
2013-06-29 18:00:00,70.8,68.0,29.84,NNW,339,0.0,0.0,89,0.00,,,1.36,weatherlink.com 1.10,2013-06-29 22:00:00,
2013-06-29 18:17:00,71.1,67.0,29.84,NNW,337,0.0,0.0,88,0.00,,,1.36,weatherlink.com 1.10,2013-06-29 22:17:00,
2013-06-29 18:34:00,70.5,67.0,29.84,NW,312,0.0,3.0,87,0.00,,,1.36,weatherlink.com 1.10,2013-06-29 22:34:00,
2013-06-29 18:53:00,70.0,67.0,29.84,NW,323,0.0,1.0,89,0.00,,,1.36,weatherlink.com 1.10,2013-06-29 22:53:00,
2013-06-29 19:10:00,69.6,67.0,29.83,North,356,0.0,3.0,90,0.00,,,1.36,weatherlink.com 1.10,2013-06-29 23:10:00,
2013-06-29 19:29:00,69.3,66.0,29.83,NNW,334,1.0,3.0,89,0.00,,,1.36,weatherlink.com 1.10,2013-06-29 23:29:00,
2013-06-29 19:46:00,69.1,66.0,29.84,NW,323,1.0,5.0,90,0.00,,,1.36,weatherlink.com 1.10,2013-06-29 23:46:00,
2013-06-29 20:05:00,68.5,66.0,29.85,ENE,67,0.0,3.0,90,0.00,,,1.36,weatherlink.com 1.10,2013-06-30 00:05:00,
2013-06-29 20:22:00,68.1,65.0,29.86,NW,324,0.0,1.0,90,0.00,,,1.36,weatherlink.com 1.10,2013-06-30 00:22:00,
2013-06-29 20:40:00,67.9,65.0,29.86,NNW,330,0.0,0.0,91,0.00,,,1.36,weatherlink.com 1.10,2013-06-30 00:40:00,
2013-06-29 20:57:00,67.2,65.0,29.87,NNW,330,0.0,0.0,92,0.00,,,1.36,weatherlink.com 1.10,2013-06-30 00:57:00,
2013-06-29 21:16:00,66.9,65.0,29.88,NNW,330,0.0,0.0,93,0.00,,,1.36,weatherlink.com 1.10,2013-06-30 01:16:00,
2013-06-29 21:33:00,66.5,65.0,29.87,NNW,330,0.0,0.0,94,0.00,,,1.36,weatherlink.com 1.10,2013-06-30 01:33:00,
2013-06-29 21:51:00,66.0,65.0,29.87,NNW,329,0.0,2.0,95,0.00,,,1.36,weatherlink.com 1.10,2013-06-30 01:51:00,
2013-06-29 22:08:00,66.0,64.0,29.89,North,5,0.0,2.0,94,0.00,,,1.36,weatherlink.com 1.10,2013-06-30 02:08:00,
2013-06-29 22:27:00,65.5,64.0,29.88,North,4,0.0,0.0,95,0.00,,,1.36,weatherlink.com 1.10,2013-06-30 02:27:00,
2013-06-29 22:45:00,65.1,64.0,29.89,North,6,0.0,0.0,95,0.00,,,1.36,weatherlink.com 1.10,2013-06-30 02:45:00,
2013-06-29 23:02:00,64.6,64.0,29.89,North,6,0.0,0.0,96,0.00,,,1.36,weatherlink.com 1.10,2013-06-30 03:02:00,
2013-06-29 23:21:00,64.3,63.0,29.89,North,5,0.0,0.0,96,0.00,,,1.36,weatherlink.com 1.10,2013-06-30 03:21:00,
2013-06-29 23:38:00,63.9,63.0,29.89,North,6,0.0,0.0,96,0.00,,,1.36,weatherlink.com 1.10,2013-06-30 03:38:00,
2013-06-29 23:56:00,64.0,63.0,29.89,North,5,0.0,0.0,97,0.00,,,1.36,weatherlink.com 1.10,2013-06-30 03:56:00,